Steubenville, Ohio
Current Conditions -  °F | °C
As of 1:53 PM on Friday 24 Oct 2014 (Local Time) from KHLG Reporting Station
Clear Clear  
Wind Chill: 57°   Ceiling: Unl
Heat Index: 57°   Visibility: 10mi
Dew Point: 40°   Wind: 8mph
Humidity: 53%   Direction: 260°W
Pressure: 30.05"   Gusts: NA
Location:  40.37°N, 80.64°W
Report Text: KHLG 241753Z 26007KT 10SM CLR 14/04 A3005 RMK AO2 SLP182 T01390044 10139 20022 58019
Loading
Personal Weather Stations






























Interactive Weather Map
Tropical Storm Tracking
New forecast layout! Learn more

10-Day Weather Forecast

Advertisements
Track Severe Weather on mobile